sensor_id;sensor_type;location;lat;lon;timestamp;temperature;humidity
1716;DHT22;855;48.824;9.220;2023-04-10T00:01:32;7.50;79.30
1716;DHT22;855;48.824;9.220;2023-04-10T00:04:02;7.50;80.40
1716;DHT22;855;48.824;9.220;2023-04-10T00:06:29;7.40;80.70
1716;DHT22;855;48.824;9.220;2023-04-10T00:08:56;7.40;80.50
1716;DHT22;855;48.824;9.220;2023-04-10T00:11:23;7.40;80.40
1716;DHT22;855;48.824;9.220;2023-04-10T00:13:50;7.40;80.50
1716;DHT22;855;48.824;9.220;2023-04-10T00:16:17;7.30;80.90
1716;DHT22;855;48.824;9.220;2023-04-10T00:18:44;7.30;81.10
1716;DHT22;855;48.824;9.220;2023-04-10T00:21:12;7.20;81.30
1716;DHT22;855;48.824;9.220;2023-04-10T00:23:39;7.20;81.70
1716;DHT22;855;48.824;9.220;2023-04-10T00:26:06;7.20;81.90
1716;DHT22;855;48.824;9.220;2023-04-10T00:28:32;7.10;82.10
1716;DHT22;855;48.824;9.220;2023-04-10T00:31:02;7.10;82.00
1716;DHT22;855;48.824;9.220;2023-04-10T00:33:29;7.10;82.10
1716;DHT22;855;48.824;9.220;2023-04-10T00:35:56;7.00;82.70
1716;DHT22;855;48.824;9.220;2023-04-10T00:38:24;6.90;83.20
1716;DHT22;855;48.824;9.220;2023-04-10T00:40:51;6.90;83.60
1716;DHT22;855;48.824;9.220;2023-04-10T00:43:17;6.90;83.80
1716;DHT22;855;48.824;9.220;2023-04-10T00:45:44;6.80;83.80
1716;DHT22;855;48.824;9.220;2023-04-10T00:48:11;6.70;84.40
1716;DHT22;855;48.824;9.220;2023-04-10T00:50:38;6.70;84.80
1716;DHT22;855;48.824;9.220;2023-04-10T00:53:05;6.70;84.90
1716;DHT22;855;48.824;9.220;2023-04-10T00:55:33;6.70;84.90
1716;DHT22;855;48.824;9.220;2023-04-10T00:58:00;6.70;84.90
1716;DHT22;855;48.824;9.220;2023-04-10T01:00:27;6.60;84.80
1716;DHT22;855;48.824;9.220;2023-04-10T01:02:54;6.60;85.00
1716;DHT22;855;48.824;9.220;2023-04-10T01:05:21;6.60;84.90
1716;DHT22;855;48.824;9.220;2023-04-10T01:07:57;6.50;84.90
1716;DHT22;855;48.824;9.220;2023-04-10T01:10:35;6.50;85.00
1716;DHT22;855;48.824;9.220;2023-04-10T01:13:08;6.40;85.00
1716;DHT22;855;48.824;9.220;2023-04-10T01:15:41;6.40;85.20
1716;DHT22;855;48.824;9.220;2023-04-10T01:18:15;6.40;85.30
1716;DHT22;855;48.824;9.220;2023-04-10T01:20:43;6.20;86.50
1716;DHT22;855;48.824;9.220;2023-04-10T01:23:52;6.20;87.00
1716;DHT22;855;48.824;9.220;2023-04-10T01:29:14;6.10;87.10
1716;DHT22;855;48.824;9.220;2023-04-10T01:31:48;6.00;87.80
1716;DHT22;855;48.824;9.220;2023-04-10T01:34:20;6.00;87.80
1716;DHT22;855;48.824;9.220;2023-04-10T01:36:50;6.00;87.90
1716;DHT22;855;48.824;9.220;2023-04-10T01:39:21;6.00;87.90
1716;DHT22;855;48.824;9.220;2023-04-10T01:41:50;6.00;87.90
1716;DHT22;855;48.824;9.220;2023-04-10T01:44:22;6.00;87.70
1716;DHT22;855;48.824;9.220;2023-04-10T01:46:51;6.00;87.70
1716;DHT22;855;48.824;9.220;2023-04-10T01:49:18;6.00;87.40
1716;DHT22;855;48.824;9.220;2023-04-10T01:51:46;6.00;87.40
1716;DHT22;855;48.824;9.220;2023-04-10T01:54:13;6.00;87.40
1716;DHT22;855;48.824;9.220;2023-04-10T01:56:41;6.00;87.30
1716;DHT22;855;48.824;9.220;2023-04-10T01:59:07;6.00;87.00
1716;DHT22;855;48.824;9.220;2023-04-10T02:01:35;5.90;87.10
1716;DHT22;855;48.824;9.220;2023-04-10T02:04:02;5.90;87.30
1716;DHT22;855;48.824;9.220;2023-04-10T02:06:36;5.80;87.40
1716;DHT22;855;48.824;9.220;2023-04-10T02:09:13;5.70;87.90
1716;DHT22;855;48.824;9.220;2023-04-10T02:11:48;5.70;88.20
1716;DHT22;855;48.824;9.220;2023-04-10T02:14:19;5.60;88.60
1716;DHT22;855;48.824;9.220;2023-04-10T02:16:50;5.60;88.30
1716;DHT22;855;48.824;9.220;2023-04-10T02:19:19;5.60;88.30
1716;DHT22;855;48.824;9.220;2023-04-10T02:21:46;5.60;88.20
1716;DHT22;855;48.824;9.220;2023-04-10T02:24:13;5.70;88.10
1716;DHT22;855;48.824;9.220;2023-04-10T02:26:44;5.60;87.90
1716;DHT22;855;48.824;9.220;2023-04-10T02:29:11;5.60;88.20
1716;DHT22;855;48.824;9.220;2023-04-10T02:31:38;5.50;88.70
1716;DHT22;855;48.824;9.220;2023-04-10T02:34:07;5.50;89.00
1716;DHT22;855;48.824;9.220;2023-04-10T02:36:35;5.50;89.00
1716;DHT22;855;48.824;9.220;2023-04-10T02:39:02;5.40;89.00
1716;DHT22;855;48.824;9.220;2023-04-10T02:41:29;5.40;89.40
1716;DHT22;855;48.824;9.220;2023-04-10T02:43:56;5.30;89.50
1716;DHT22;855;48.824;9.220;2023-04-10T02:46:22;5.30;89.50
1716;DHT22;855;48.824;9.220;2023-04-10T02:48:50;5.30;89.40
1716;DHT22;855;48.824;9.220;2023-04-10T02:51:18;5.30;89.30
1716;DHT22;855;48.824;9.220;2023-04-10T02:53:46;5.20;89.80
1716;DHT22;855;48.824;9.220;2023-04-10T02:56:13;5.20;90.10
1716;DHT22;855;48.824;9.220;2023-04-10T02:58:40;5.20;90.30
1716;DHT22;855;48.824;9.220;2023-04-10T03:01:10;5.20;90.30
1716;DHT22;855;48.824;9.220;2023-04-10T03:03:37;5.20;90.40
1716;DHT22;855;48.824;9.220;2023-04-10T03:06:04;5.20;90.30
1716;DHT22;855;48.824;9.220;2023-04-10T03:08:33;5.20;90.40
1716;DHT22;855;48.824;9.220;2023-04-10T03:10:59;5.10;90.20
1716;DHT22;855;48.824;9.220;2023-04-10T03:13:26;5.10;90.40
1716;DHT22;855;48.824;9.220;2023-04-10T03:15:53;5.10;90.50
1716;DHT22;855;48.824;9.220;2023-04-10T03:18:20;5.10;90.60
1716;DHT22;855;48.824;9.220;2023-04-10T03:20:48;5.10;90.90
1716;DHT22;855;48.824;9.220;2023-04-10T03:23:15;5.00;91.20
1716;DHT22;855;48.824;9.220;2023-04-10T03:25:43;5.00;91.50
1716;DHT22;855;48.824;9.220;2023-04-10T03:28:10;5.00;91.50
1716;DHT22;855;48.824;9.220;2023-04-10T03:30:37;5.00;91.60
1716;DHT22;855;48.824;9.220;2023-04-10T03:33:04;5.10;91.40
1716;DHT22;855;48.824;9.220;2023-04-10T03:35:30;5.10;91.20
1716;DHT22;855;48.824;9.220;2023-04-10T03:37:57;5.10;91.10
1716;DHT22;855;48.824;9.220;2023-04-10T03:40:24;5.10;91.00
1716;DHT22;855;48.824;9.220;2023-04-10T03:42:52;5.00;90.90
1716;DHT22;855;48.824;9.220;2023-04-10T03:45:19;5.10;90.70
1716;DHT22;855;48.824;9.220;2023-04-10T03:47:46;5.10;90.50
1716;DHT22;855;48.824;9.220;2023-04-10T03:50:13;5.00;90.30
1716;DHT22;855;48.824;9.220;2023-04-10T03:52:40;4.80;90.50
1716;DHT22;855;48.824;9.220;2023-04-10T03:55:07;4.80;90.90
1716;DHT22;855;48.824;9.220;2023-04-10T03:57:34;4.90;91.00
1716;DHT22;855;48.824;9.220;2023-04-10T04:00:02;4.80;91.00
1716;DHT22;855;48.824;9.220;2023-04-10T04:02:30;4.80;91.10
1716;DHT22;855;48.824;9.220;2023-04-10T04:04:57;4.80;91.20
1716;DHT22;855;48.824;9.220;2023-04-10T04:07:23;4.80;91.40
1716;DHT22;855;48.824;9.220;2023-04-10T04:09:50;4.80;91.40
1716;DHT22;855;48.824;9.220;2023-04-10T04:12:17;4.80;91.40
1716;DHT22;855;48.824;9.220;2023-04-10T04:14:44;4.70;91.20
1716;DHT22;855;48.824;9.220;2023-04-10T04:17:12;4.50;91.50
1716;DHT22;855;48.824;9.220;2023-04-10T04:19:39;4.40;91.70
1716;DHT22;855;48.824;9.220;2023-04-10T04:22:05;4.50;92.00
1716;DHT22;855;48.824;9.220;2023-04-10T04:24:32;4.60;91.90
1716;DHT22;855;48.824;9.220;2023-04-10T04:26:59;4.70;91.70
1716;DHT22;855;48.824;9.220;2023-04-10T04:29:27;4.70;91.50
1716;DHT22;855;48.824;9.220;2023-04-10T04:31:54;4.70;91.60
1716;DHT22;855;48.824;9.220;2023-04-10T04:34:22;4.70;91.70
1716;DHT22;855;48.824;9.220;2023-04-10T04:36:48;4.70;91.70
1716;DHT22;855;48.824;9.220;2023-04-10T04:39:15;4.70;91.70
1716;DHT22;855;48.824;9.220;2023-04-10T04:41:42;4.70;91.80
1716;DHT22;855;48.824;9.220;2023-04-10T04:44:09;4.80;91.80
1716;DHT22;855;48.824;9.220;2023-04-10T04:46:36;4.80;91.60
1716;DHT22;855;48.824;9.220;2023-04-10T04:49:03;4.60;91.90
1716;DHT22;855;48.824;9.220;2023-04-10T04:51:31;4.60;92.40
1716;DHT22;855;48.824;9.220;2023-04-10T04:53:57;4.60;92.40
1716;DHT22;855;48.824;9.220;2023-04-10T04:56:24;4.70;92.40
1716;DHT22;855;48.824;9.220;2023-04-10T04:58:51;4.70;92.40
1716;DHT22;855;48.824;9.220;2023-04-10T05:01:18;4.70;92.40
1716;DHT22;855;48.824;9.220;2023-04-10T05:03:45;4.80;92.40
1716;DHT22;855;48.824;9.220;2023-04-10T05:06:11;4.80;92.40
1716;DHT22;855;48.824;9.220;2023-04-10T05:08:40;4.80;92.70
1716;DHT22;855;48.824;9.220;2023-04-10T05:11:07;4.90;92.70
1716;DHT22;855;48.824;9.220;2023-04-10T05:13:34;5.00;92.80
1716;DHT22;855;48.824;9.220;2023-04-10T05:16:00;5.10;92.70
1716;DHT22;855;48.824;9.220;2023-04-10T05:18:27;5.20;92.60
1716;DHT22;855;48.824;9.220;2023-04-10T05:20:54;5.30;92.40
1716;DHT22;855;48.824;9.220;2023-04-10T05:23:21;5.40;92.40
1716;DHT22;855;48.824;9.220;2023-04-10T05:25:49;5.50;92.20
1716;DHT22;855;48.824;9.220;2023-04-10T05:28:17;5.50;91.90
1716;DHT22;855;48.824;9.220;2023-04-10T05:30:43;5.60;92.10
1716;DHT22;855;48.824;9.220;2023-04-10T05:33:10;5.80;92.20
1716;DHT22;855;48.824;9.220;2023-04-10T05:35:37;6.00;92.10
1716;DHT22;855;48.824;9.220;2023-04-10T05:38:04;6.20;91.90
1716;DHT22;855;48.824;9.220;2023-04-10T05:40:31;6.30;91.40
1716;DHT22;855;48.824;9.220;2023-04-10T05:42:59;6.50;91.00
1716;DHT22;855;48.824;9.220;2023-04-10T05:45:25;6.70;90.30
1716;DHT22;855;48.824;9.220;2023-04-10T05:47:54;7.00;89.70
1716;DHT22;855;48.824;9.220;2023-04-10T05:50:21;7.10;88.70
1716;DHT22;855;48.824;9.220;2023-04-10T05:52:48;7.30;87.90
1716;DHT22;855;48.824;9.220;2023-04-10T05:55:15;7.50;87.40
1716;DHT22;855;48.824;9.220;2023-04-10T05:57:41;7.60;86.90
1716;DHT22;855;48.824;9.220;2023-04-10T06:00:11;7.80;86.40
1716;DHT22;855;48.824;9.220;2023-04-10T06:02:38;8.00;85.60
1716;DHT22;855;48.824;9.220;2023-04-10T06:05:06;8.10;85.30
1716;DHT22;855;48.824;9.220;2023-04-10T06:07:33;8.30;84.20
1716;DHT22;855;48.824;9.220;2023-04-10T06:10:00;8.40;83.80
1716;DHT22;855;48.824;9.220;2023-04-10T06:12:27;8.50;83.40
1716;DHT22;855;48.824;9.220;2023-04-10T06:14:53;8.60;82.80
1716;DHT22;855;48.824;9.220;2023-04-10T06:17:22;8.80;82.40
1716;DHT22;855;48.824;9.220;2023-04-10T06:19:50;8.80;81.60
1716;DHT22;855;48.824;9.220;2023-04-10T06:22:18;8.90;81.50
1716;DHT22;855;48.824;9.220;2023-04-10T06:24:45;8.90;81.90
1716;DHT22;855;48.824;9.220;2023-04-10T06:27:12;9.00;81.10
1716;DHT22;855;48.824;9.220;2023-04-10T06:29:39;9.00;80.30
1716;DHT22;855;48.824;9.220;2023-04-10T06:32:06;9.00;80.50
1716;DHT22;855;48.824;9.220;2023-04-10T06:34:34;8.90;81.10
1716;DHT22;855;48.824;9.220;2023-04-10T06:37:01;9.00;80.70
1716;DHT22;855;48.824;9.220;2023-04-10T06:39:28;9.10;80.50
1716;DHT22;855;48.824;9.220;2023-04-10T06:41:55;9.20;79.50
1716;DHT22;855;48.824;9.220;2023-04-10T06:44:22;9.40;78.60
1716;DHT22;855;48.824;9.220;2023-04-10T06:46:49;9.50;77.90
1716;DHT22;855;48.824;9.220;2023-04-10T06:49:15;9.60;76.60
1716;DHT22;855;48.824;9.220;2023-04-10T06:51:44;9.70;75.80
1716;DHT22;855;48.824;9.220;2023-04-10T06:54:12;9.80;74.70
1716;DHT22;855;48.824;9.220;2023-04-10T06:56:40;9.80;73.70
1716;DHT22;855;48.824;9.220;2023-04-10T06:59:06;9.70;72.90
1716;DHT22;855;48.824;9.220;2023-04-10T07:01:33;9.80;72.10
1716;DHT22;855;48.824;9.220;2023-04-10T07:04:01;10.00;71.90
1716;DHT22;855;48.824;9.220;2023-04-10T07:06:27;10.00;69.80
1716;DHT22;855;48.824;9.220;2023-04-10T07:08:57;10.20;70.00
1716;DHT22;855;48.824;9.220;2023-04-10T07:11:23;10.40;68.40
1716;DHT22;855;48.824;9.220;2023-04-10T07:13:50;10.30;69.00
1716;DHT22;855;48.824;9.220;2023-04-10T07:16:18;10.50;69.70
1716;DHT22;855;48.824;9.220;2023-04-10T07:18:44;10.60;68.90
1716;DHT22;855;48.824;9.220;2023-04-10T07:21:11;10.70;68.10
1716;DHT22;855;48.824;9.220;2023-04-10T07:23:38;10.90;68.00
1716;DHT22;855;48.824;9.220;2023-04-10T07:26:06;11.10;66.80
1716;DHT22;855;48.824;9.220;2023-04-10T07:28:33;11.30;66.40
1716;DHT22;855;48.824;9.220;2023-04-10T07:31:00;11.40;64.90
1716;DHT22;855;48.824;9.220;2023-04-10T07:33:27;11.60;64.80
1716;DHT22;855;48.824;9.220;2023-04-10T07:35:54;11.90;63.80
1716;DHT22;855;48.824;9.220;2023-04-10T07:38:21;12.00;61.10
1716;DHT22;855;48.824;9.220;2023-04-10T07:40:48;12.20;61.20
1716;DHT22;855;48.824;9.220;2023-04-10T07:43:16;12.30;59.80
1716;DHT22;855;48.824;9.220;2023-04-10T07:45:43;12.20;61.00
1716;DHT22;855;48.824;9.220;2023-04-10T07:48:10;12.40;60.10
1716;DHT22;855;48.824;9.220;2023-04-10T07:50:37;12.60;60.00
1716;DHT22;855;48.824;9.220;2023-04-10T07:53:04;12.80;59.00
1716;DHT22;855;48.824;9.220;2023-04-10T07:55:36;12.90;59.50
1716;DHT22;855;48.824;9.220;2023-04-10T07:58:03;12.90;59.40
1716;DHT22;855;48.824;9.220;2023-04-10T08:00:32;13.20;58.50
1716;DHT22;855;48.824;9.220;2023-04-10T08:02:59;13.40;57.20
1716;DHT22;855;48.824;9.220;2023-04-10T08:05:26;13.60;56.80
1716;DHT22;855;48.824;9.220;2023-04-10T08:07:53;13.80;56.40
1716;DHT22;855;48.824;9.220;2023-04-10T08:10:20;13.90;55.50
1716;DHT22;855;48.824;9.220;2023-04-10T08:12:47;14.10;55.40
1716;DHT22;855;48.824;9.220;2023-04-10T08:15:14;14.30;56.00
1716;DHT22;855;48.824;9.220;2023-04-10T08:17:42;14.50;53.70
1716;DHT22;855;48.824;9.220;2023-04-10T08:20:09;14.70;54.90
1716;DHT22;855;48.824;9.220;2023-04-10T08:22:36;14.90;54.40
1716;DHT22;855;48.824;9.220;2023-04-10T08:25:04;15.00;53.80
1716;DHT22;855;48.824;9.220;2023-04-10T08:27:31;15.00;51.40
1716;DHT22;855;48.824;9.220;2023-04-10T08:29:58;15.00;51.60
1716;DHT22;855;48.824;9.220;2023-04-10T08:32:24;15.00;51.30
1716;DHT22;855;48.824;9.220;2023-04-10T08:34:53;15.00;52.70
1716;DHT22;855;48.824;9.220;2023-04-10T08:37:20;15.00;51.70
1716;DHT22;855;48.824;9.220;2023-04-10T08:39:47;15.10;51.70
1716;DHT22;855;48.824;9.220;2023-04-10T08:42:14;15.20;50.90
1716;DHT22;855;48.824;9.220;2023-04-10T08:44:41;15.10;50.30
1716;DHT22;855;48.824;9.220;2023-04-10T08:47:08;15.30;49.60
1716;DHT22;855;48.824;9.220;2023-04-10T08:49:39;15.40;48.80
1716;DHT22;855;48.824;9.220;2023-04-10T08:52:14;15.60;48.70
1716;DHT22;855;48.824;9.220;2023-04-10T08:54:46;15.70;46.00
1716;DHT22;855;48.824;9.220;2023-04-10T08:57:14;15.70;43.60
1716;DHT22;855;48.824;9.220;2023-04-10T08:59:45;15.70;43.70
1716;DHT22;855;48.824;9.220;2023-04-10T09:02:12;15.70;44.50
1716;DHT22;855;48.824;9.220;2023-04-10T09:04:39;15.80;46.50
1716;DHT22;855;48.824;9.220;2023-04-10T09:07:06;15.80;46.30
1716;DHT22;855;48.824;9.220;2023-04-10T09:09:34;16.00;44.80
1716;DHT22;855;48.824;9.220;2023-04-10T09:12:01;16.20;44.70
1716;DHT22;855;48.824;9.220;2023-04-10T09:14:29;16.10;42.80
1716;DHT22;855;48.824;9.220;2023-04-10T09:17:10;16.00;43.00
1716;DHT22;855;48.824;9.220;2023-04-10T09:19:37;16.00;43.20
1716;DHT22;855;48.824;9.220;2023-04-10T09:22:04;16.10;43.70
1716;DHT22;855;48.824;9.220;2023-04-10T09:24:36;16.10;42.00
1716;DHT22;855;48.824;9.220;2023-04-10T09:27:03;16.20;43.10
1716;DHT22;855;48.824;9.220;2023-04-10T09:29:43;16.40;44.80
1716;DHT22;855;48.824;9.220;2023-04-10T09:32:13;16.70;44.10
1716;DHT22;855;48.824;9.220;2023-04-10T09:34:53;16.80;42.60
1716;DHT22;855;48.824;9.220;2023-04-10T09:37:21;16.90;42.30
1716;DHT22;855;48.824;9.220;2023-04-10T09:39:49;16.90;41.00
1716;DHT22;855;48.824;9.220;2023-04-10T09:42:29;16.80;41.70
1716;DHT22;855;48.824;9.220;2023-04-10T09:44:57;16.80;41.50
1716;DHT22;855;48.824;9.220;2023-04-10T09:47:24;16.80;42.30
1716;DHT22;855;48.824;9.220;2023-04-10T09:49:52;16.90;41.80
1716;DHT22;855;48.824;9.220;2023-04-10T09:52:20;17.00;41.70
1716;DHT22;855;48.824;9.220;2023-04-10T09:54:47;17.00;40.40
1716;DHT22;855;48.824;9.220;2023-04-10T09:57:17;17.20;40.40
1716;DHT22;855;48.824;9.220;2023-04-10T09:59:47;17.10;41.70
1716;DHT22;855;48.824;9.220;2023-04-10T10:02:17;17.30;39.40
1716;DHT22;855;48.824;9.220;2023-04-10T10:04:45;17.40;39.20
1716;DHT22;855;48.824;9.220;2023-04-10T10:07:14;17.50;40.10
1716;DHT22;855;48.824;9.220;2023-04-10T10:09:42;17.70;41.60
1716;DHT22;855;48.824;9.220;2023-04-10T10:12:09;17.80;39.60
1716;DHT22;855;48.824;9.220;2023-04-10T10:14:43;17.80;38.40
1716;DHT22;855;48.824;9.220;2023-04-10T10:17:14;17.70;37.60
1716;DHT22;855;48.824;9.220;2023-04-10T10:19:48;17.90;38.60
1716;DHT22;855;48.824;9.220;2023-04-10T10:22:18;18.00;38.00
1716;DHT22;855;48.824;9.220;2023-04-10T10:24:45;18.10;40.10
1716;DHT22;855;48.824;9.220;2023-04-10T10:27:13;18.10;38.20
1716;DHT22;855;48.824;9.220;2023-04-10T10:29:43;18.10;36.60
1716;DHT22;855;48.824;9.220;2023-04-10T10:32:12;18.30;37.60
1716;DHT22;855;48.824;9.220;2023-04-10T10:34:40;18.40;38.60
1716;DHT22;855;48.824;9.220;2023-04-10T10:37:07;18.50;38.10
1716;DHT22;855;48.824;9.220;2023-04-10T10:39:44;18.70;38.00
1716;DHT22;855;48.824;9.220;2023-04-10T10:42:17;18.80;38.50
1716;DHT22;855;48.824;9.220;2023-04-10T10:44:51;18.90;37.50
1716;DHT22;855;48.824;9.220;2023-04-10T10:47:25;19.00;38.00
1716;DHT22;855;48.824;9.220;2023-04-10T10:49:54;19.10;36.00
1716;DHT22;855;48.824;9.220;2023-04-10T10:52:38;19.10;34.60
1716;DHT22;855;48.824;9.220;2023-04-10T10:55:26;19.00;35.40
1716;DHT22;855;48.824;9.220;2023-04-10T10:57:57;19.20;38.10
1716;DHT22;855;48.824;9.220;2023-04-10T11:00:26;19.30;35.50
1716;DHT22;855;48.824;9.220;2023-04-10T11:03:27;19.10;34.50
1716;DHT22;855;48.824;9.220;2023-04-10T11:05:55;19.10;35.30
1716;DHT22;855;48.824;9.220;2023-04-10T11:08:38;19.30;35.70
1716;DHT22;855;48.824;9.220;2023-04-10T11:11:08;19.40;36.00
1716;DHT22;855;48.824;9.220;2023-04-10T11:13:36;19.40;34.40
1716;DHT22;855;48.824;9.220;2023-04-10T11:16:05;19.50;34.90
1716;DHT22;855;48.824;9.220;2023-04-10T11:19:09;19.60;33.90
1716;DHT22;855;48.824;9.220;2023-04-10T11:21:59;19.70;33.80
1716;DHT22;855;48.824;9.220;2023-04-10T11:24:26;19.70;32.40
1716;DHT22;855;48.824;9.220;2023-04-10T11:26:54;19.90;33.60
1716;DHT22;855;48.824;9.220;2023-04-10T11:29:34;19.80;33.60
1716;DHT22;855;48.824;9.220;2023-04-10T11:32:02;19.90;34.10
1716;DHT22;855;48.824;9.220;2023-04-10T11:34:31;19.70;33.30
1716;DHT22;855;48.824;9.220;2023-04-10T11:36:59;19.70;31.60
1716;DHT22;855;48.824;9.220;2023-04-10T11:39:29;19.80;33.00
1716;DHT22;855;48.824;9.220;2023-04-10T11:41:56;20.10;31.60
1716;DHT22;855;48.824;9.220;2023-04-10T11:44:27;20.20;31.50
1716;DHT22;855;48.824;9.220;2023-04-10T11:46:54;19.90;30.80
1716;DHT22;855;48.824;9.220;2023-04-10T11:49:23;19.90;30.50
1716;DHT22;855;48.824;9.220;2023-04-10T11:51:52;19.90;31.10
1716;DHT22;855;48.824;9.220;2023-04-10T11:54:20;19.80;30.30
1716;DHT22;855;48.824;9.220;2023-04-10T11:56:56;19.70;30.30
1716;DHT22;855;48.824;9.220;2023-04-10T11:59:24;19.80;30.80
1716;DHT22;855;48.824;9.220;2023-04-10T12:01:52;20.00;29.30
1716;DHT22;855;48.824;9.220;2023-04-10T12:04:22;19.90;30.10
1716;DHT22;855;48.824;9.220;2023-04-10T12:06:50;20.00;30.60
1716;DHT22;855;48.824;9.220;2023-04-10T12:09:19;20.00;29.40
1716;DHT22;855;48.824;9.220;2023-04-10T12:11:51;20.00;28.50
1716;DHT22;855;48.824;9.220;2023-04-10T12:14:19;20.10;28.20
1716;DHT22;855;48.824;9.220;2023-04-10T12:16:46;20.30;28.70
1716;DHT22;855;48.824;9.220;2023-04-10T12:19:13;20.30;26.00
1716;DHT22;855;48.824;9.220;2023-04-10T12:21:41;20.20;26.40
1716;DHT22;855;48.824;9.220;2023-04-10T12:24:08;20.20;26.20
1716;DHT22;855;48.824;9.220;2023-04-10T12:26:37;20.30;26.30
1716;DHT22;855;48.824;9.220;2023-04-10T12:29:04;20.40;26.60
1716;DHT22;855;48.824;9.220;2023-04-10T12:31:33;20.60;26.20
1716;DHT22;855;48.824;9.220;2023-04-10T12:34:01;20.60;25.20
1716;DHT22;855;48.824;9.220;2023-04-10T12:36:30;20.60;24.80
1716;DHT22;855;48.824;9.220;2023-04-10T12:39:00;20.40;24.70
1716;DHT22;855;48.824;9.220;2023-04-10T12:41:29;20.10;25.50
1716;DHT22;855;48.824;9.220;2023-04-10T12:44:08;20.20;25.20
1716;DHT22;855;48.824;9.220;2023-04-10T12:46:34;20.30;25.50
1716;DHT22;855;48.824;9.220;2023-04-10T12:49:08;20.40;25.10
1716;DHT22;855;48.824;9.220;2023-04-10T12:51:45;20.60;25.50
1716;DHT22;855;48.824;9.220;2023-04-10T12:54:27;20.70;25.10
1716;DHT22;855;48.824;9.220;2023-04-10T12:56:54;20.50;25.10
1716;DHT22;855;48.824;9.220;2023-04-10T12:59:23;20.30;26.30
1716;DHT22;855;48.824;9.220;2023-04-10T13:01:50;20.40;25.50
1716;DHT22;855;48.824;9.220;2023-04-10T13:04:17;20.30;25.90
1716;DHT22;855;48.824;9.220;2023-04-10T13:06:45;20.50;26.30
1716;DHT22;855;48.824;9.220;2023-04-10T13:09:12;20.60;26.30
1716;DHT22;855;48.824;9.220;2023-04-10T13:11:41;20.60;27.20
1716;DHT22;855;48.824;9.220;2023-04-10T13:14:08;20.60;26.70
1716;DHT22;855;48.824;9.220;2023-04-10T13:16:36;20.50;27.10
1716;DHT22;855;48.824;9.220;2023-04-10T13:19:03;20.70;27.00
1716;DHT22;855;48.824;9.220;2023-04-10T13:21:30;20.80;26.80
1716;DHT22;855;48.824;9.220;2023-04-10T13:23:57;20.90;27.00
1716;DHT22;855;48.824;9.220;2023-04-10T13:26:24;21.00;27.90
1716;DHT22;855;48.824;9.220;2023-04-10T13:28:52;21.00;26.60
1716;DHT22;855;48.824;9.220;2023-04-10T13:31:18;21.00;26.70
1716;DHT22;855;48.824;9.220;2023-04-10T13:33:47;21.10;26.50
1716;DHT22;855;48.824;9.220;2023-04-10T13:36:14;21.20;26.80
1716;DHT22;855;48.824;9.220;2023-04-10T13:38:47;21.30;27.40
1716;DHT22;855;48.824;9.220;2023-04-10T13:41:14;21.40;28.20
1716;DHT22;855;48.824;9.220;2023-04-10T13:43:41;21.30;27.70
1716;DHT22;855;48.824;9.220;2023-04-10T13:46:07;21.20;27.30
1716;DHT22;855;48.824;9.220;2023-04-10T13:48:34;21.20;27.10
1716;DHT22;855;48.824;9.220;2023-04-10T13:51:07;21.30;27.20
1716;DHT22;855;48.824;9.220;2023-04-10T13:53:34;21.50;26.50
1716;DHT22;855;48.824;9.220;2023-04-10T13:56:01;21.40;27.20
1716;DHT22;855;48.824;9.220;2023-04-10T13:58:27;21.50;27.20
1716;DHT22;855;48.824;9.220;2023-04-10T14:00:56;21.50;26.50
1716;DHT22;855;48.824;9.220;2023-04-10T14:03:23;21.40;27.20
1716;DHT22;855;48.824;9.220;2023-04-10T14:05:49;21.60;26.50
1716;DHT22;855;48.824;9.220;2023-04-10T14:08:18;21.40;26.70
1716;DHT22;855;48.824;9.220;2023-04-10T14:10:51;21.30;26.40
1716;DHT22;855;48.824;9.220;2023-04-10T14:13:19;21.40;26.90
1716;DHT22;855;48.824;9.220;2023-04-10T14:15:46;21.50;27.10
1716;DHT22;855;48.824;9.220;2023-04-10T14:18:14;21.60;28.10
1716;DHT22;855;48.824;9.220;2023-04-10T14:20:43;21.50;27.00
1716;DHT22;855;48.824;9.220;2023-04-10T14:23:10;21.50;27.20
1716;DHT22;855;48.824;9.220;2023-04-10T14:25:43;21.50;26.60
1716;DHT22;855;48.824;9.220;2023-04-10T14:28:10;21.30;26.70
1716;DHT22;855;48.824;9.220;2023-04-10T14:30:42;21.20;27.00
1716;DHT22;855;48.824;9.220;2023-04-10T14:33:16;21.20;27.60
1716;DHT22;855;48.824;9.220;2023-04-10T14:35:44;21.40;27.60
1716;DHT22;855;48.824;9.220;2023-04-10T14:38:11;21.40;27.10
1716;DHT22;855;48.824;9.220;2023-04-10T14:40:38;21.40;27.60
1716;DHT22;855;48.824;9.220;2023-04-10T14:43:07;21.50;26.40
1716;DHT22;855;48.824;9.220;2023-04-10T14:45:46;21.50;26.80
1716;DHT22;855;48.824;9.220;2023-04-10T14:48:13;21.40;26.90
1716;DHT22;855;48.824;9.220;2023-04-10T14:50:40;21.40;27.00
1716;DHT22;855;48.824;9.220;2023-04-10T14:53:07;21.20;26.70
1716;DHT22;855;48.824;9.220;2023-04-10T14:55:35;21.20;27.40
1716;DHT22;855;48.824;9.220;2023-04-10T14:58:02;21.30;27.90
1716;DHT22;855;48.824;9.220;2023-04-10T15:00:32;21.20;28.20
1716;DHT22;855;48.824;9.220;2023-04-10T15:02:59;21.20;28.60
1716;DHT22;855;48.824;9.220;2023-04-10T15:05:31;21.20;27.70
1716;DHT22;855;48.824;9.220;2023-04-10T15:07:58;21.20;27.60
1716;DHT22;855;48.824;9.220;2023-04-10T15:10:27;21.20;27.70
1716;DHT22;855;48.824;9.220;2023-04-10T15:12:54;21.40;28.60
1716;DHT22;855;48.824;9.220;2023-04-10T15:15:21;21.40;27.30
1716;DHT22;855;48.824;9.220;2023-04-10T15:17:49;21.30;27.70
1716;DHT22;855;48.824;9.220;2023-04-10T15:20:15;21.20;27.50
1716;DHT22;855;48.824;9.220;2023-04-10T15:22:42;21.20;27.80
1716;DHT22;855;48.824;9.220;2023-04-10T15:25:10;21.20;28.50
1716;DHT22;855;48.824;9.220;2023-04-10T15:27:37;21.10;27.80
1716;DHT22;855;48.824;9.220;2023-04-10T15:30:05;21.20;28.50
1716;DHT22;855;48.824;9.220;2023-04-10T15:32:32;21.30;28.20
1716;DHT22;855;48.824;9.220;2023-04-10T15:35:00;21.30;28.60
1716;DHT22;855;48.824;9.220;2023-04-10T15:37:27;21.10;28.40
1716;DHT22;855;48.824;9.220;2023-04-10T15:39:54;21.10;28.20
1716;DHT22;855;48.824;9.220;2023-04-10T15:42:21;21.00;28.30
1716;DHT22;855;48.824;9.220;2023-04-10T15:44:47;21.00;28.00
1716;DHT22;855;48.824;9.220;2023-04-10T15:47:14;20.80;27.90
1716;DHT22;855;48.824;9.220;2023-04-10T15:49:41;20.70;28.10
1716;DHT22;855;48.824;9.220;2023-04-10T15:52:09;20.70;29.00
1716;DHT22;855;48.824;9.220;2023-04-10T15:54:37;20.70;28.90
1716;DHT22;855;48.824;9.220;2023-04-10T15:57:04;20.70;29.30
1716;DHT22;855;48.824;9.220;2023-04-10T15:59:31;20.60;28.90
1716;DHT22;855;48.824;9.220;2023-04-10T16:01:58;20.60;29.00
1716;DHT22;855;48.824;9.220;2023-04-10T16:04:25;20.40;29.70
1716;DHT22;855;48.824;9.220;2023-04-10T16:06:52;20.40;29.90
1716;DHT22;855;48.824;9.220;2023-04-10T16:09:22;20.40;30.80
1716;DHT22;855;48.824;9.220;2023-04-10T16:11:49;20.30;30.60
1716;DHT22;855;48.824;9.220;2023-04-10T16:14:35;20.30;30.60
1716;DHT22;855;48.824;9.220;2023-04-10T16:17:02;20.20;31.60
1716;DHT22;855;48.824;9.220;2023-04-10T16:19:29;20.10;31.40
1716;DHT22;855;48.824;9.220;2023-04-10T16:22:02;20.00;31.60
1716;DHT22;855;48.824;9.220;2023-04-10T16:27:43;19.90;32.40
1716;DHT22;855;48.824;9.220;2023-04-10T16:30:10;19.80;32.80
1716;DHT22;855;48.824;9.220;2023-04-10T16:32:37;19.80;33.30
1716;DHT22;855;48.824;9.220;2023-04-10T16:35:05;19.90;33.40
1716;DHT22;855;48.824;9.220;2023-04-10T16:37:32;19.90;33.60
1716;DHT22;855;48.824;9.220;2023-04-10T16:39:58;19.90;33.30